createdAt,value
2023-04-23T00:05:49.138Z,98929.87
2023-04-23T00:15:21.862Z,98928.23
2023-04-23T00:24:57.844Z,98938.59
2023-04-23T00:34:30.068Z,98935.34
2023-04-23T00:44:05.568Z,98931.38
2023-04-23T00:53:38.185Z,98922.03
2023-04-23T01:03:12.560Z,98930.73
2023-04-23T01:12:48.419Z,98920.58
2023-04-23T01:22:21.039Z,98931.30
2023-04-23T01:31:55.728Z,98944.86
2023-04-23T01:41:31.363Z,98947.84
2023-04-23T01:51:03.585Z,98936.64
2023-04-23T02:00:38.021Z,98951.13
2023-04-23T02:10:12.508Z,98953.59
2023-04-23T02:19:46.476Z,98963.38
2023-04-23T02:29:20.741Z,98967.89
2023-04-23T02:38:54.570Z,98962.30
2023-04-23T02:48:30.209Z,98979.27
2023-04-23T02:58:02.211Z,98978.41
2023-04-23T03:07:36.917Z,98982.72
2023-04-23T03:17:12.710Z,98975.93
2023-04-23T03:26:46.398Z,98970.52
2023-04-23T03:36:18.974Z,98967.79
2023-04-23T03:45:55.050Z,98963.88
2023-04-23T03:55:27.383Z,98965.22
2023-04-23T04:05:01.902Z,98961.88
2023-04-23T04:14:35.900Z,98983.18
2023-04-23T04:24:10.483Z,98998.63
2023-04-23T04:33:44.486Z,98978.28
2023-04-23T04:43:20.615Z,98987.76
2023-04-23T04:52:53.291Z,98982.41
2023-04-23T05:02:27.543Z,98986.30
2023-04-23T05:12:01.692Z,98984.27
2023-04-23T05:21:37.207Z,98996.85
2023-04-23T05:31:09.346Z,99002.79
2023-04-23T05:40:43.408Z,99010.45
2023-04-23T05:50:17.357Z,99013.02
2023-04-23T05:59:51.513Z,99007.72
2023-04-23T06:09:25.899Z,99003.09
2023-04-23T06:19:01.719Z,99004.38
2023-04-23T06:28:36.245Z,99012.89
2023-04-23T06:38:09.740Z,98994.23
2023-04-23T06:47:44.222Z,98975.52
2023-04-23T06:48:48.257Z,98976.91
2023-04-23T06:58:21.424Z,98966.83
2023-04-23T06:59:23.744Z,98961.34
2023-04-23T07:00:27.849Z,98956.45
2023-04-23T07:01:30.201Z,98954.34
2023-04-23T07:02:32.591Z,98947.15
2023-04-23T07:03:35.087Z,98949.44
2023-04-23T07:13:09.282Z,98965.97
2023-04-23T07:14:11.637Z,98959.46
2023-04-23T07:15:14.104Z,98963.11
2023-04-23T07:16:20.496Z,98957.83
2023-04-23T07:17:20.837Z,98955.30
2023-04-23T07:18:23.067Z,98954.15
2023-04-23T07:19:25.559Z,98961.05
2023-04-23T07:20:29.586Z,98957.88
2023-04-23T07:21:33.541Z,98960.78
2023-04-23T07:22:37.466Z,98961.66
2023-04-23T07:23:41.333Z,98960.30
2023-04-23T07:24:45.239Z,98955.34
2023-04-23T07:34:17.698Z,98958.66
2023-04-23T07:35:20.395Z,98957.13
2023-04-23T07:36:22.726Z,98954.09
2023-04-23T07:37:25.078Z,98959.44
2023-04-23T07:38:29.168Z,98960.91
2023-04-23T07:39:31.557Z,98956.94
2023-04-23T07:40:34.016Z,98963.08
2023-04-23T07:41:38.048Z,98955.02
2023-04-23T07:42:41.932Z,98955.66
2023-04-23T07:43:45.904Z,98954.55
2023-04-23T07:44:48.294Z,98952.42
2023-04-23T07:45:50.697Z,98949.06
2023-04-23T07:46:53.023Z,98950.38
2023-04-23T07:47:55.519Z,98950.69
2023-04-23T07:48:57.957Z,98954.17
2023-04-23T07:50:01.933Z,98948.13
2023-04-23T07:51:04.256Z,98943.31
2023-04-23T07:52:06.734Z,98940.45
2023-04-23T07:53:09.120Z,98946.39
2023-04-23T07:54:13.180Z,98945.35
2023-04-23T07:55:17.112Z,98945.95
2023-04-23T07:56:19.550Z,98942.22
2023-04-23T07:57:22.184Z,98948.81
2023-04-23T07:58:24.609Z,98938.64
2023-04-23T07:59:27.008Z,98938.50
2023-04-23T08:00:29.703Z,98944.53
2023-04-23T08:01:32.300Z,98939.45
2023-04-23T08:02:34.625Z,98943.32
2023-04-23T08:03:37.302Z,98945.00
2023-04-23T08:04:39.750Z,98947.53
2023-04-23T08:05:43.681Z,98945.91
2023-04-23T08:06:47.607Z,98947.94
2023-04-23T08:07:50.063Z,98949.21
2023-04-23T08:08:52.352Z,98944.91
2023-04-23T08:09:56.420Z,98939.59
2023-04-23T08:10:58.833Z,98940.89
2023-04-23T08:12:01.290Z,98939.58
2023-04-23T08:13:05.619Z,98938.53
2023-04-23T08:14:09.530Z,98941.02
2023-04-23T08:15:11.812Z,98936.92
2023-04-23T08:16:16.030Z,98935.74
2023-04-23T08:17:18.361Z,98938.18
2023-04-23T08:18:20.746Z,98937.94
2023-04-23T08:19:23.139Z,98936.34
2023-04-23T08:20:25.634Z,98931.16
2023-04-23T08:21:28.091Z,98939.33
2023-04-23T08:22:30.591Z,98934.22
2023-04-23T08:23:34.549Z,98940.75
2023-04-23T08:24:36.803Z,98941.06
2023-04-23T08:25:40.844Z,98942.72
2023-04-23T08:26:43.287Z,98942.35
2023-04-23T08:27:47.353Z,98939.59
2023-04-23T08:28:51.293Z,98942.85
2023-04-23T08:29:55.189Z,98938.47
2023-04-23T08:30:59.117Z,98934.73
2023-04-23T08:32:01.475Z,98930.38
2023-04-23T08:33:03.848Z,98926.48
2023-04-23T08:34:06.274Z,98928.32
2023-04-23T08:35:10.269Z,98937.28
2023-04-23T08:36:12.597Z,98935.02
2023-04-23T08:37:23.463Z,98931.63
2023-04-23T08:38:19.025Z,98934.20
2023-04-23T08:39:21.446Z,98929.79
2023-04-23T08:40:25.566Z,98928.61
2023-04-23T08:41:29.371Z,98928.84
2023-04-23T08:42:31.774Z,98931.11
2023-04-23T08:43:35.737Z,98933.33
2023-04-23T08:44:39.704Z,98929.37
2023-04-23T08:45:42.008Z,98934.17
2023-04-23T08:46:46.098Z,98939.84
2023-04-23T08:47:48.406Z,98929.45
2023-04-23T08:48:52.352Z,98932.56
2023-04-23T08:49:54.657Z,98933.52
2023-04-23T08:50:58.690Z,98924.73
2023-04-23T08:52:01.111Z,98928.19
2023-04-23T08:53:03.632Z,98927.83
2023-04-23T08:54:06.055Z,98927.59
2023-04-23T08:55:08.521Z,98931.14
2023-04-23T08:56:10.936Z,98920.88
2023-04-23T08:57:13.379Z,98926.77
2023-04-23T08:58:17.461Z,98918.17
2023-04-23T08:59:21.405Z,98922.79
2023-04-23T09:00:25.302Z,98922.50
2023-04-23T09:01:27.601Z,98923.48
2023-04-23T09:02:30.092Z,98920.75
2023-04-23T09:03:32.613Z,98918.69
2023-04-23T09:04:35.086Z,98922.48
2023-04-23T09:05:37.479Z,98913.82
2023-04-23T09:06:41.621Z,98909.82
2023-04-23T09:07:44.177Z,98910.91
2023-04-23T09:08:46.571Z,98911.64
2023-04-23T09:09:49.000Z,98905.61
2023-04-23T09:10:51.464Z,98914.23
2023-04-23T09:11:55.561Z,98913.45
2023-04-23T09:12:57.864Z,98911.94
2023-04-23T09:14:01.969Z,98908.60
2023-04-23T09:15:04.305Z,98911.27
2023-04-23T09:16:06.769Z,98908.22
2023-04-23T09:17:10.782Z,98909.26
2023-04-23T09:18:13.025Z,98904.22
2023-04-23T09:19:15.620Z,98904.83
2023-04-23T09:20:19.624Z,98910.47
2023-04-23T09:21:22.349Z,98909.88
2023-04-23T09:22:26.337Z,98898.11
2023-04-23T09:23:28.650Z,98903.42
2023-04-23T09:24:32.664Z,98906.27
2023-04-23T09:25:34.996Z,98900.73
2023-04-23T09:26:39.116Z,98899.53
2023-04-23T09:27:42.972Z,98895.78
2023-04-23T09:28:48.409Z,98899.08
2023-04-23T09:29:50.790Z,98892.05
2023-04-23T09:30:53.135Z,98891.20
2023-04-23T09:31:57.210Z,98898.06
2023-04-23T09:33:01.155Z,98890.83
2023-04-23T09:34:03.404Z,98887.30
2023-04-23T09:35:05.821Z,98888.20
2023-04-23T09:36:08.280Z,98883.88
2023-04-23T09:37:12.332Z,98888.78
2023-04-23T09:38:14.637Z,98881.38
2023-04-23T09:39:18.681Z,98884.70
2023-04-23T09:40:21.146Z,98881.38
2023-04-23T09:41:23.472Z,98878.73
2023-04-23T09:42:25.970Z,98877.70
2023-04-23T09:43:30.318Z,98877.22
2023-04-23T09:44:32.652Z,98880.03
2023-04-23T09:45:35.078Z,98875.55
2023-04-23T09:46:39.080Z,98874.95
2023-04-23T09:47:41.526Z,98871.55
2023-04-23T09:48:45.554Z,98875.20
2023-04-23T09:49:48.005Z,98879.34
2023-04-23T09:50:50.365Z,98876.38
2023-04-23T09:51:54.388Z,98875.95
2023-04-23T09:52:58.342Z,98878.72
2023-04-23T09:54:00.627Z,98870.91
2023-04-23T09:55:03.165Z,98873.66
2023-04-23T09:56:07.113Z,98871.38
2023-04-23T09:57:09.457Z,98866.80
2023-04-23T09:58:11.975Z,98867.45
2023-04-23T09:59:14.422Z,98864.52
2023-04-23T10:00:17.171Z,98864.02
2023-04-23T10:01:19.358Z,98862.76
2023-04-23T10:02:23.441Z,98860.25
2023-04-23T10:03:27.455Z,98866.66
2023-04-23T10:04:29.675Z,98859.54
2023-04-23T10:05:40.984Z,98862.84
2023-04-23T10:06:44.137Z,98858.30
2023-04-23T10:07:37.027Z,98859.89
2023-04-23T10:08:41.075Z,98858.53
2023-04-23T10:09:43.782Z,98866.20
2023-04-23T10:10:59.897Z,98863.53
2023-04-23T10:11:49.925Z,98858.86
2023-04-23T10:12:55.111Z,98861.05
2023-04-23T10:13:54.801Z,98860.73
2023-04-23T10:14:58.861Z,98856.07
2023-04-23T10:16:14.388Z,98858.02
2023-04-23T10:17:05.133Z,98856.23
2023-04-23T10:18:09.199Z,98853.97
2023-04-23T10:19:11.536Z,98855.63
2023-04-23T10:20:14.032Z,98853.63
2023-04-23T10:21:17.991Z,98853.53
2023-04-23T10:22:20.618Z,98851.75
2023-04-23T10:23:22.882Z,98852.67
2023-04-23T10:24:25.292Z,98848.44
2023-04-23T10:25:27.709Z,98851.60
2023-04-23T10:26:30.147Z,98847.60
2023-04-23T10:27:44.461Z,98852.78
2023-04-23T10:28:38.072Z,98854.21
2023-04-23T10:29:40.594Z,98853.98
2023-04-23T10:30:43.071Z,98849.13
2023-04-23T10:31:47.202Z,98852.58
2023-04-23T10:32:49.592Z,98846.10
2023-04-23T10:33:58.729Z,98848.03
2023-04-23T10:34:54.610Z,98843.29
2023-04-23T10:35:58.668Z,98847.28
2023-04-23T10:37:01.108Z,98841.45
2023-04-23T10:38:03.566Z,98838.08
2023-04-23T10:39:05.970Z,98839.05
2023-04-23T10:40:08.381Z,98843.95
2023-04-23T10:41:10.837Z,98840.95
2023-04-23T10:42:13.258Z,98835.18
2023-04-23T10:43:15.721Z,98829.31
2023-04-23T10:44:24.274Z,98830.16
2023-04-23T10:45:25.139Z,98838.53
2023-04-23T10:46:26.284Z,98832.93
2023-04-23T10:47:30.364Z,98834.61
2023-04-23T10:48:34.183Z,98827.01
2023-04-23T10:49:38.100Z,98830.77
2023-04-23T10:50:48.200Z,98829.16
2023-04-23T10:52:45.357Z,98823.00
2023-04-23T10:53:47.854Z,98823.48
2023-04-23T10:54:50.265Z,98822.97
2023-04-23T10:55:54.335Z,98819.02
2023-04-23T10:56:58.310Z,98818.60
2023-04-23T10:58:02.862Z,98821.27
2023-04-23T10:59:06.082Z,98818.78
2023-04-23T11:00:08.377Z,98819.29
2023-04-23T11:01:10.889Z,98817.60
2023-04-23T11:02:13.506Z,98819.72
2023-04-23T11:03:17.503Z,98825.75
2023-04-23T11:04:19.837Z,98819.56
2023-04-23T11:05:23.742Z,98816.33
2023-04-23T11:06:26.129Z,98810.22
2023-04-23T11:07:28.594Z,98810.05
2023-04-23T11:08:31.007Z,98809.43
2023-04-23T11:09:33.504Z,98809.13
2023-04-23T11:10:35.935Z,98800.24
2023-04-23T11:11:38.366Z,98801.23
2023-04-23T11:12:42.415Z,98802.87
2023-04-23T11:13:46.389Z,98806.37
2023-04-23T11:14:48.912Z,98801.64
2023-04-23T11:24:20.409Z,98798.14
2023-04-23T11:25:22.894Z,98794.56
2023-04-23T11:26:27.164Z,98796.48
2023-04-23T11:27:29.861Z,98794.70
2023-04-23T11:28:32.242Z,98786.52
2023-04-23T11:29:36.312Z,98787.16
2023-04-23T11:30:38.647Z,98781.81
2023-04-23T11:31:50.783Z,98785.98
2023-04-23T11:32:45.232Z,98784.61
2023-04-23T11:33:49.416Z,98779.97
2023-04-23T11:34:51.897Z,98771.74
2023-04-23T11:35:55.905Z,98773.99
2023-04-23T11:36:59.850Z,98775.25
2023-04-23T11:38:03.840Z,98771.05
2023-04-23T11:39:06.143Z,98769.45
2023-04-23T11:40:08.604Z,98767.76
2023-04-23T11:41:12.750Z,98772.61
2023-04-23T11:42:15.108Z,98770.39
2023-04-23T11:43:17.544Z,98757.70
2023-04-23T11:44:19.993Z,98756.39
2023-04-23T11:45:24.028Z,98751.98
2023-04-23T11:46:26.536Z,98746.69
2023-04-23T11:47:28.873Z,98743.39
2023-04-23T11:48:31.259Z,98744.27
2023-04-23T11:49:33.674Z,98733.86
2023-04-23T11:50:36.134Z,98740.34
2023-04-23T11:51:38.630Z,98737.47
2023-04-23T11:52:41.097Z,98735.86
2023-04-23T11:53:43.541Z,98731.18
2023-04-23T11:54:46.229Z,98738.74
2023-04-23T11:55:48.624Z,98739.38
2023-04-23T11:56:51.090Z,98738.59
2023-04-23T11:57:53.590Z,98733.97
2023-04-23T11:58:57.604Z,98734.66
2023-04-23T12:00:01.545Z,98734.19
2023-04-23T12:01:03.928Z,98735.81
2023-04-23T12:02:06.477Z,98736.02
2023-04-23T12:03:08.998Z,98735.19
2023-04-23T12:04:13.501Z,98735.77
2023-04-23T12:05:17.146Z,98734.81
2023-04-23T12:06:19.360Z,98731.57
2023-04-23T12:07:26.180Z,98735.14
2023-04-23T12:08:24.334Z,98737.36
2023-04-23T12:09:26.855Z,98732.20
2023-04-23T12:10:29.328Z,98725.74
2023-04-23T12:11:31.767Z,98727.54
2023-04-23T12:12:35.797Z,98735.55
2023-04-23T12:13:38.106Z,98726.78
2023-04-23T12:14:40.628Z,98726.38
2023-04-23T12:15:43.088Z,98717.04
2023-04-23T12:16:45.600Z,98722.50
2023-04-23T12:17:48.023Z,98718.49
2023-04-23T12:18:52.059Z,98715.19
2023-04-23T12:19:55.949Z,98712.72
2023-04-23T12:20:58.312Z,98712.67
2023-04-23T12:22:00.725Z,98711.50
2023-04-23T12:23:03.247Z,98705.19
2023-04-23T12:24:07.362Z,98702.42
2023-04-23T12:25:09.790Z,98705.41
2023-04-23T12:26:12.293Z,98698.50
2023-04-23T12:27:14.712Z,98699.94
2023-04-23T12:28:18.845Z,98699.28
2023-04-23T12:29:21.215Z,98694.95
2023-04-23T12:30:25.318Z,98698.53
2023-04-23T12:31:27.736Z,98688.55
2023-04-23T12:32:31.768Z,98690.33
2023-04-23T12:33:34.125Z,98684.36
2023-04-23T12:34:36.565Z,98685.20
2023-04-23T12:35:39.080Z,98681.03
2023-04-23T12:36:41.541Z,98683.25
2023-04-23T12:37:45.572Z,98679.04
2023-04-23T12:38:49.558Z,98677.56
2023-04-23T12:39:51.925Z,98682.55
2023-04-23T12:40:54.426Z,98681.45
2023-04-23T12:41:58.495Z,98680.66
2023-04-23T12:43:00.806Z,98681.66
2023-04-23T12:44:04.828Z,98680.86
2023-04-23T12:45:08.784Z,98682.13
2023-04-23T12:46:11.197Z,98680.30
2023-04-23T12:47:13.618Z,98677.63
2023-04-23T12:48:16.103Z,98674.62
2023-04-23T12:49:18.568Z,98671.27
2023-04-23T12:50:21.143Z,98671.64
2023-04-23T12:51:23.540Z,98670.82
2023-04-23T12:52:27.628Z,98664.30
2023-04-23T12:53:29.949Z,98661.02
2023-04-23T12:54:32.407Z,98659.34
2023-04-23T12:55:36.442Z,98662.75
2023-04-23T12:56:38.797Z,98650.23
2023-04-23T12:57:41.271Z,98657.54
2023-04-23T12:58:43.776Z,98654.03
2023-04-23T12:59:46.234Z,98648.09
2023-04-23T13:00:48.966Z,98649.77
2023-04-23T13:01:51.591Z,98644.16
2023-04-23T13:02:53.954Z,98647.13
2023-04-23T13:03:58.015Z,98646.72
2023-04-23T13:05:01.840Z,98641.34
2023-04-23T13:06:05.778Z,98638.83
2023-04-23T13:07:08.085Z,98642.31
2023-04-23T13:08:10.560Z,98640.66
2023-04-23T13:09:13.202Z,98648.44
2023-04-23T13:10:15.600Z,98644.58
2023-04-23T13:11:19.638Z,98642.41
2023-04-23T13:12:22.122Z,98645.86
2023-04-23T13:13:26.137Z,98644.89
2023-04-23T13:14:28.484Z,98639.00
2023-04-23T13:15:30.882Z,98637.64
2023-04-23T13:16:33.406Z,98633.99
2023-04-23T13:17:37.467Z,98629.81
2023-04-23T13:18:41.376Z,98640.38
2023-04-23T13:19:43.881Z,98633.58
2023-04-23T13:20:46.214Z,98632.01
2023-04-23T13:21:48.727Z,98635.82
2023-04-23T13:22:52.725Z,98625.37
2023-04-23T13:23:56.653Z,98626.18
2023-04-23T13:24:59.006Z,98618.49
2023-04-23T13:26:01.485Z,98623.44
2023-04-23T13:27:03.947Z,98620.89
2023-04-23T13:28:06.402Z,98612.80
2023-04-23T13:29:10.518Z,98613.89
2023-04-23T13:30:12.850Z,98616.45
2023-04-23T13:31:15.300Z,98610.40
2023-04-23T13:32:22.055Z,98612.16
2023-04-23T13:33:24.870Z,98604.00
2023-04-23T13:34:28.692Z,98597.22
2023-04-23T13:35:31.038Z,98597.47
2023-04-23T13:36:33.506Z,98595.45
2023-04-23T13:37:36.004Z,98589.53
2023-04-23T13:38:38.468Z,98587.54
2023-04-23T13:39:41.871Z,98594.90
2023-04-23T13:40:43.477Z,98594.20
2023-04-23T13:41:47.867Z,98593.03
2023-04-23T13:42:50.119Z,98599.70
2023-04-23T13:43:54.024Z,98595.35
2023-04-23T13:44:56.541Z,98598.92
2023-04-23T13:46:00.690Z,98598.52
2023-04-23T13:47:04.586Z,98592.99
2023-04-23T13:48:06.897Z,98599.82
2023-04-23T13:49:10.951Z,98595.03
2023-04-23T13:50:13.338Z,98590.11
2023-04-23T13:51:32.976Z,98586.16
2023-04-23T13:52:19.827Z,98579.11
2023-04-23T13:53:23.822Z,98577.41
2023-04-23T13:54:27.739Z,98575.13
2023-04-23T13:55:30.128Z,98571.29
2023-04-23T13:56:32.551Z,98572.06
2023-04-23T13:57:35.128Z,98567.19
2023-04-23T13:58:37.458Z,98568.88
2023-04-23T13:59:40.188Z,98559.19
2023-04-23T14:00:42.480Z,98561.58
2023-04-23T14:01:46.615Z,98560.64
2023-04-23T14:02:50.632Z,98560.13
2023-04-23T14:03:54.571Z,98552.61
2023-04-23T14:04:58.523Z,98553.30
2023-04-23T14:06:00.767Z,98551.25
2023-04-23T14:07:04.852Z,98546.75
2023-04-23T14:08:08.728Z,98543.60
2023-04-23T14:09:11.095Z,98539.23
2023-04-23T14:10:15.350Z,98541.45
2023-04-23T14:11:18.670Z,98536.28
2023-04-23T14:12:21.135Z,98533.45
2023-04-23T14:13:23.552Z,98531.39
2023-04-23T14:14:26.014Z,98535.48
2023-04-23T14:15:28.469Z,98528.77
2023-04-23T14:16:32.528Z,98526.54
2023-04-23T14:17:34.898Z,98523.99
2023-04-23T14:18:37.372Z,98525.36
2023-04-23T14:19:41.533Z,98520.49
2023-04-23T14:20:45.310Z,98516.83
2023-04-23T14:21:49.251Z,98515.54
2023-04-23T14:22:53.211Z,98507.80
2023-04-23T14:23:57.458Z,98514.09
2023-04-23T14:24:59.774Z,98511.82
2023-04-23T14:26:02.196Z,98511.20
2023-04-23T14:27:05.745Z,98512.47
2023-04-23T14:28:08.805Z,98518.30
2023-04-23T14:29:12.711Z,98507.80
2023-04-23T14:30:15.392Z,98505.19
2023-04-23T14:31:17.669Z,98505.49
2023-04-23T14:32:20.320Z,98504.77
2023-04-23T14:33:22.654Z,98496.27
2023-04-23T14:34:26.725Z,98492.31
2023-04-23T14:35:41.742Z,98490.80
2023-04-23T14:36:31.543Z,98492.08
2023-04-23T14:37:33.980Z,98488.11
2023-04-23T14:38:36.444Z,98489.16
2023-04-23T14:39:39.143Z,98481.56
2023-04-23T14:40:41.632Z,98476.64
2023-04-23T14:41:45.687Z,98480.78
2023-04-23T14:42:47.952Z,98474.20
2023-04-23T14:43:50.468Z,98479.88
2023-04-23T14:44:54.602Z,98471.88
2023-04-23T14:45:56.991Z,98460.26
2023-04-23T14:47:01.023Z,98464.42
2023-04-23T14:48:03.358Z,98466.00
2023-04-23T14:49:06.036Z,98463.22
2023-04-23T14:50:08.473Z,98460.56
2023-04-23T14:51:11.124Z,98460.76
2023-04-23T14:52:13.591Z,98453.13
2023-04-23T14:53:17.581Z,98452.62
2023-04-23T14:54:21.545Z,98454.94
2023-04-23T14:55:25.524Z,98454.17
2023-04-23T14:56:27.820Z,98449.43
2023-04-23T14:57:30.342Z,98447.70
2023-04-23T14:58:34.516Z,98450.47
2023-04-23T14:59:38.379Z,98445.09
2023-04-23T15:00:40.748Z,98447.98
2023-04-23T15:01:43.214Z,98446.69
2023-04-23T15:02:47.518Z,98440.92
2023-04-23T15:03:49.778Z,98441.68
2023-04-23T15:04:53.747Z,98444.13
2023-04-23T15:05:56.080Z,98445.30
2023-04-23T15:07:00.411Z,98447.32
2023-04-23T15:08:02.689Z,98446.22
2023-04-23T15:09:05.171Z,98444.23
2023-04-23T15:10:07.918Z,98447.17
2023-04-23T15:11:11.836Z,98439.86
2023-04-23T15:12:14.036Z,98441.38
2023-04-23T15:13:16.484Z,98436.86
2023-04-23T15:14:18.957Z,98440.39
2023-04-23T15:15:27.843Z,98439.14
2023-04-23T15:16:35.943Z,98436.65
2023-04-23T15:17:27.845Z,98436.53
2023-04-23T15:18:30.311Z,98440.15
2023-04-23T15:19:32.723Z,98436.22
2023-04-23T15:20:35.169Z,98433.47
2023-04-23T15:21:37.642Z,98433.69
2023-04-23T15:22:40.075Z,98429.16
2023-04-23T15:23:44.131Z,98434.59
2023-04-23T15:24:46.652Z,98433.56
2023-04-23T15:25:48.978Z,98437.22
2023-04-23T15:26:51.439Z,98440.33
2023-04-23T15:27:53.898Z,98440.84
2023-04-23T15:28:56.372Z,98438.47
2023-04-23T15:30:00.599Z,98439.66
2023-04-23T15:31:02.993Z,98431.23
2023-04-23T15:32:07.029Z,98438.21
2023-04-23T15:33:09.341Z,98429.45
2023-04-23T15:34:13.425Z,98432.88
2023-04-23T15:35:15.675Z,98443.84
2023-04-23T15:36:19.738Z,98445.95
2023-04-23T15:37:22.056Z,98445.11
2023-04-23T15:38:24.498Z,98450.15
2023-04-23T15:39:27.042Z,98460.94
2023-04-23T15:40:29.520Z,98464.98
2023-04-23T15:41:31.932Z,98465.94
2023-04-23T15:42:34.341Z,98476.94
2023-04-23T15:43:36.908Z,98487.03
2023-04-23T15:44:40.901Z,98493.68
2023-04-23T15:45:43.503Z,98505.53
2023-04-23T15:46:47.515Z,98511.30
2023-04-23T15:47:49.777Z,98509.75
2023-04-23T15:48:53.796Z,98510.36
2023-04-23T15:49:56.200Z,98510.95
2023-04-23T15:50:58.620Z,98509.12
2023-04-23T15:52:01.139Z,98517.66
2023-04-23T15:53:05.060Z,98530.98
2023-04-23T15:54:07.394Z,98527.16
2023-04-23T15:55:09.803Z,98530.93
2023-04-23T15:56:12.321Z,98532.60
2023-04-23T15:57:16.341Z,98538.98
2023-04-23T15:58:18.655Z,98533.52
2023-04-23T15:59:21.096Z,98523.07
2023-04-23T16:00:23.532Z,98525.45
2023-04-23T16:01:27.765Z,98514.36
2023-04-23T16:02:29.987Z,98512.59
2023-04-23T16:03:34.245Z,98521.00
2023-04-23T16:04:36.490Z,98530.08
2023-04-23T16:05:38.717Z,98542.83
2023-04-23T16:06:41.146Z,98542.72
2023-04-23T16:07:43.548Z,98543.75
2023-04-23T16:08:46.006Z,98542.55
2023-04-23T16:09:48.446Z,98543.89
2023-04-23T16:10:50.967Z,98536.97
2023-04-23T16:11:54.388Z,98534.41
2023-04-23T16:12:56.791Z,98543.40
2023-04-23T16:13:59.225Z,98529.45
2023-04-23T16:15:01.789Z,98518.02
2023-04-23T16:16:05.809Z,98503.78
2023-04-23T16:17:08.171Z,98498.81
2023-04-23T16:18:10.689Z,98502.41
2023-04-23T16:19:13.112Z,98503.91
2023-04-23T16:20:17.199Z,98509.19
2023-04-23T16:21:19.557Z,98503.78
2023-04-23T16:22:23.573Z,98510.08
2023-04-23T16:23:25.964Z,98503.86
2023-04-23T16:24:30.024Z,98492.70
2023-04-23T16:25:33.915Z,98485.72
2023-04-23T16:26:37.856Z,98482.85
2023-04-23T16:27:40.255Z,98480.45
2023-04-23T16:28:42.763Z,98471.50
2023-04-23T16:29:45.160Z,98467.03
2023-04-23T16:30:47.633Z,98472.77
2023-04-23T16:31:50.011Z,98466.44
2023-04-23T16:32:54.339Z,98465.95
2023-04-23T16:33:56.585Z,98467.48
2023-04-23T16:34:58.967Z,98458.02
2023-04-23T16:36:01.418Z,98469.96
2023-04-23T16:37:03.865Z,98466.59
2023-04-23T16:38:06.312Z,98465.51
2023-04-23T16:39:08.761Z,98462.84
2023-04-23T16:40:11.213Z,98467.89
2023-04-23T16:41:15.259Z,98460.63
2023-04-23T16:42:17.580Z,98459.81
2023-04-23T16:43:20.032Z,98459.84
2023-04-23T16:44:22.475Z,98460.49
2023-04-23T16:45:26.540Z,98451.70
2023-04-23T16:46:30.423Z,98457.77
2023-04-23T16:47:32.712Z,98450.36
2023-04-23T16:48:36.688Z,98452.18
2023-04-23T16:49:40.629Z,98450.92
2023-04-23T16:50:42.895Z,98446.81
2023-04-23T16:51:45.348Z,98446.91
2023-04-23T16:52:49.394Z,98445.22
2023-04-23T16:53:51.792Z,98444.72
2023-04-23T16:54:55.812Z,98441.58
2023-04-23T16:55:59.785Z,98440.98
2023-04-23T16:57:02.115Z,98438.98
2023-04-23T16:58:04.576Z,98429.99
2023-04-23T16:59:08.680Z,98436.55
2023-04-23T17:00:10.991Z,98435.20
2023-04-23T17:01:13.420Z,98434.63
2023-04-23T17:02:17.483Z,98439.47
2023-04-23T17:03:19.789Z,98443.37
2023-04-23T17:04:22.494Z,98444.28
2023-04-23T17:05:24.657Z,98448.77
2023-04-23T17:06:27.003Z,98458.08
2023-04-23T17:07:29.455Z,98454.00
2023-04-23T17:08:33.500Z,98454.11
2023-04-23T17:09:35.794Z,98453.71
2023-04-23T17:10:38.228Z,98445.72
2023-04-23T17:11:40.642Z,98451.99
2023-04-23T17:12:43.089Z,98455.40
2023-04-23T17:13:45.494Z,98449.41
2023-04-23T17:14:48.337Z,98448.12
2023-04-23T17:15:51.520Z,98448.47
2023-04-23T17:16:53.959Z,98439.96
2023-04-23T17:17:58.076Z,98437.70
2023-04-23T17:19:07.544Z,98430.06
2023-04-23T17:20:11.126Z,98427.22
2023-04-23T17:21:13.400Z,98419.43
2023-04-23T17:22:15.810Z,98425.98
2023-04-23T17:23:18.333Z,98421.36
2023-04-23T17:24:22.422Z,98421.60
2023-04-23T17:25:24.658Z,98421.19
2023-04-23T17:26:27.058Z,98424.44
2023-04-23T17:27:29.489Z,98424.45
2023-04-23T17:28:31.952Z,98425.94
2023-04-23T17:29:34.824Z,98427.51
2023-04-23T17:30:38.651Z,98422.64
2023-04-23T17:31:42.585Z,98423.41
2023-04-23T17:32:44.982Z,98430.28
2023-04-23T17:33:47.326Z,98426.49
2023-04-23T17:35:03.037Z,98421.14
2023-04-23T17:35:56.234Z,98421.59
2023-04-23T17:36:58.511Z,98418.64
2023-04-23T17:46:30.694Z,98423.34
2023-04-23T17:47:33.246Z,98429.72
2023-04-23T17:48:35.651Z,98435.02
2023-04-23T17:49:38.109Z,98433.17
2023-04-23T17:50:42.325Z,98432.53
2023-04-23T17:51:44.627Z,98433.58
2023-04-23T17:52:47.037Z,98437.03
2023-04-23T17:53:51.079Z,98432.28
2023-04-23T17:54:55.008Z,98433.64
2023-04-23T17:55:57.436Z,98433.50
2023-04-23T17:56:59.730Z,98428.64
2023-04-23T18:06:33.851Z,98427.19
2023-04-23T18:07:37.844Z,98420.62
2023-04-23T18:08:42.792Z,98421.06
2023-04-23T18:09:44.202Z,98423.59
2023-04-23T18:10:46.590Z,98416.16
2023-04-23T18:11:50.734Z,98414.00
2023-04-23T18:12:53.027Z,98411.30
2023-04-23T18:13:55.460Z,98409.41
2023-04-23T18:14:57.874Z,98401.70
2023-04-23T18:16:00.298Z,98401.93
2023-04-23T18:17:04.312Z,98402.53
2023-04-23T18:18:06.623Z,98405.23
2023-04-23T18:19:10.645Z,98405.09
2023-04-23T18:20:12.962Z,98403.71
2023-04-23T18:21:15.328Z,98409.16
2023-04-23T18:22:18.015Z,98408.56
2023-04-23T18:23:20.468Z,98404.78
2023-04-23T18:24:22.768Z,98407.97
2023-04-23T18:25:26.778Z,98411.19
2023-04-23T18:26:29.277Z,98400.30
2023-04-23T18:27:33.496Z,98398.20
2023-04-23T18:37:03.072Z,98418.50
2023-04-23T18:46:36.969Z,98423.27
2023-04-23T18:56:12.729Z,98422.02
2023-04-23T19:05:43.860Z,98438.66
2023-04-23T19:15:17.814Z,98452.08
2023-04-23T19:24:51.832Z,98455.66
2023-04-23T19:34:25.897Z,98467.31
2023-04-23T19:43:59.804Z,98475.79
2023-04-23T19:53:35.696Z,98474.47
2023-04-23T20:03:07.879Z,98473.73
2023-04-23T20:12:42.192Z,98467.16
2023-04-23T20:22:16.029Z,98455.82
2023-04-23T20:31:51.535Z,98439.25
2023-04-23T20:41:23.193Z,98441.17
2023-04-23T20:50:59.311Z,98451.45
2023-04-23T21:00:31.518Z,98471.95
2023-04-23T21:10:05.525Z,98479.34
2023-04-23T21:19:40.910Z,98483.67
2023-04-23T21:29:14.609Z,98465.39
2023-04-23T21:38:48.654Z,98480.98
2023-04-23T21:48:22.875Z,98486.05
2023-04-23T21:57:58.367Z,98486.58
2023-04-23T22:07:29.294Z,98486.33
2023-04-23T22:17:03.383Z,98484.89
2023-04-23T22:26:38.487Z,98493.63
2023-04-23T22:36:12.305Z,98484.13
2023-04-23T22:45:43.700Z,98477.47
2023-04-23T22:55:19.204Z,98470.59
2023-04-23T23:04:51.294Z,98479.63
2023-04-23T23:14:26.790Z,98483.30
2023-04-23T23:24:00.848Z,98468.58
2023-04-23T23:33:33.339Z,98455.91
2023-04-23T23:43:06.874Z,98450.86
2023-04-23T23:52:40.438Z,98447.06
